Tropical Cyclones
[Index]
Main Index Home Page Stock Weather Photos Extreme Storms Discussion Storm News and Storm Chasing Reports Tropical Cyclones / Hurricanes / Typhoons Weather Data and Links Wild Fires / Bushfires Weather Observation Techniques Weather Picture Catalogue Tornado Pictures and Reports Stock Video Footage and DVDs for sale
Season 2007-2008 Tropical Cyclone GULA Track Map
Season 2007-2008 Summaries (Operational Data): [AU] [SIO] [SPAC] [SH]
<<- Previous TC | 2007-2008 Season | Next TC ->>

click for intensity scale information  Lat/long Grid: Show Hide

 Date Labels: Show Hide

Operational Tropical Cyclone Data : JTWC Advisories

Name: GULA
Number: 0814

26 Jan 2008 12:00 UTC to 03 Feb 2008 00:00 UTC

    date/time    lat    long     hPa   cat  kts
2008-01-26 12   11.6    62.4    1002         25          
2008-01-26 18   12.0    62.5    1002         25          
2008-01-27 00   12.6    62.5    1000         25          
2008-01-27 06   12.9    62.5     997         30          
2008-01-27 12   13.7    62.5     995    1    35          
2008-01-27 18   14.1    62.4     995    1    35          
2008-01-28 00   14.9    61.7     995    1    35          
2008-01-28 06   15.0    62.6     987    1    45          
2008-01-28 12   14.9    62.2     985    2    50          
2008-01-28 18   14.7    62.0     978    2    55          
2008-01-29 00   14.5    61.9     972    2    60          
2008-01-29 06   14.7    61.4     960    3    75          
2008-01-29 12   14.8    61.0     950    3    85          
2008-01-29 18   14.9    60.6     955    3    80          
2008-01-30 00   15.0    60.5     960    3    75          
2008-01-30 06   15.3    60.3     980    2    50          
2008-01-30 12   16.9    60.4     990    1    45          
2008-01-30 18   17.8    60.1     990    1    40          
2008-01-31 00   18.6    59.7     988    1    45          
2008-01-31 06   19.8    59.3     988    1    45          
2008-01-31 12   22.3    58.4     990    1    35          
2008-01-31 18   24.3    57.4     985    2    50          
2008-02-01 00   25.2    56.1     986    2    50          
2008-02-01 06   26.0    54.0     986    2    50          
2008-02-01 12   26.4    55.3     992    1    45          
2008-02-01 18   28.0    55.6     990    1    45          
2008-02-02 00   29.5    56.4     982    1    45          
2008-02-02 12   32.0    59.0                             
2008-02-03 00   38.0    64.0                             
Winds are 10-min average.

Tropical cyclone tracks developed by Michael Bath using operational warnings and advisories and Google Maps.


[Australian Severe Weather index] [Copyright Notice] [Email Contacts] [Search This Site] [Privacy Policy]
Document: tropical_cyclone_gula.htm Updated: 2 May 2017